sensor_id;sensor_type;location;lat;lon;timestamp;pressure;altitude;pressure_sealevel;temperature;humidity
54882;BME280;40775;51.448;4.742;2023-12-29T00:02:16;100744.50;;;11.55;100.00
54882;BME280;40775;51.448;4.742;2023-12-29T00:04:43;100755.78;;;11.50;100.00
54882;BME280;40775;51.448;4.742;2023-12-29T00:07:12;100745.28;;;11.50;100.00
54882;BME280;40775;51.448;4.742;2023-12-29T00:09:39;100741.03;;;11.56;100.00
54882;BME280;40775;51.448;4.742;2023-12-29T00:12:08;100741.13;;;11.64;100.00
54882;BME280;40775;51.448;4.742;2023-12-29T00:14:39;100734.13;;;11.66;100.00
54882;BME280;40775;51.448;4.742;2023-12-29T00:17:07;100740.19;;;11.59;100.00
54882;BME280;40775;51.448;4.742;2023-12-29T00:19:34;100733.09;;;11.55;100.00
54882;BME280;40775;51.448;4.742;2023-12-29T00:22:02;100739.22;;;11.54;100.00
54882;BME280;40775;51.448;4.742;2023-12-29T00:24:30;100737.53;;;11.59;100.00
54882;BME280;40775;51.448;4.742;2023-12-29T00:27:01;100724.38;;;11.57;100.00
54882;BME280;40775;51.448;4.742;2023-12-29T00:29:29;100732.22;;;11.53;100.00
54882;BME280;40775;51.448;4.742;2023-12-29T00:32:00;100735.72;;;11.53;100.00
54882;BME280;40775;51.448;4.742;2023-12-29T00:34:30;100728.56;;;11.46;100.00
54882;BME280;40775;51.448;4.742;2023-12-29T00:36:57;100740.00;;;11.48;100.00
54882;BME280;40775;51.448;4.742;2023-12-29T00:39:25;100733.78;;;11.41;100.00
54882;BME280;40775;51.448;4.742;2023-12-29T00:41:57;100724.16;;;11.42;100.00
54882;BME280;40775;51.448;4.742;2023-12-29T00:44:24;100720.66;;;11.44;100.00
54882;BME280;40775;51.448;4.742;2023-12-29T00:46:51;100727.63;;;11.39;100.00
54882;BME280;40775;51.448;4.742;2023-12-29T00:49:18;100734.56;;;11.34;100.00
54882;BME280;40775;51.448;4.742;2023-12-29T00:51:47;100724.97;;;11.39;100.00
54882;BME280;40775;51.448;4.742;2023-12-29T00:54:15;100731.84;;;11.30;100.00
54882;BME280;40775;51.448;4.742;2023-12-29T00:56:49;100746.59;;;11.22;100.00
54882;BME280;40775;51.448;4.742;2023-12-29T00:59:18;100740.41;;;11.18;100.00
54882;BME280;40775;51.448;4.742;2023-12-29T01:01:45;100748.28;;;11.17;100.00
54882;BME280;40775;51.448;4.742;2023-12-29T01:04:13;100745.56;;;11.12;100.00
54882;BME280;40775;51.448;4.742;2023-12-29T01:06:40;100720.94;;;11.04;100.00
54882;BME280;40775;51.448;4.742;2023-12-29T01:09:07;100716.50;;;11.01;100.00
54882;BME280;40775;51.448;4.742;2023-12-29T01:11:36;100722.63;;;11.00;100.00
54882;BME280;40775;51.448;4.742;2023-12-29T01:14:03;100728.63;;;10.93;100.00
54882;BME280;40775;51.448;4.742;2023-12-29T01:16:30;100733.94;;;10.96;100.00
54882;BME280;40775;51.448;4.742;2023-12-29T01:18:57;100734.75;;;10.94;100.00
54882;BME280;40775;51.448;4.742;2023-12-29T01:21:24;100716.25;;;10.88;100.00
54882;BME280;40775;51.448;4.742;2023-12-29T01:23:51;100717.19;;;10.90;100.00
54882;BME280;40775;51.448;4.742;2023-12-29T01:26:18;100713.72;;;10.94;100.00
54882;BME280;40775;51.448;4.742;2023-12-29T01:28:45;100721.63;;;10.95;100.00
54882;BME280;40775;51.448;4.742;2023-12-29T01:31:12;100713.72;;;10.94;100.00
54882;BME280;40775;51.448;4.742;2023-12-29T01:33:40;100717.22;;;10.93;100.00
54882;BME280;40775;51.448;4.742;2023-12-29T01:36:08;100715.69;;;11.04;100.00
54882;BME280;40775;51.448;4.742;2023-12-29T01:38:43;100707.69;;;10.96;100.00
54882;BME280;40775;51.448;4.742;2023-12-29T01:41:10;100729.47;;;10.92;100.00
54882;BME280;40775;51.448;4.742;2023-12-29T01:46:33;100718.09;;;10.92;100.00
54882;BME280;40775;51.448;4.742;2023-12-29T01:49:01;100725.97;;;10.93;100.00
54882;BME280;40775;51.448;4.742;2023-12-29T01:51:29;100733.94;;;10.96;100.00
54882;BME280;40775;51.448;4.742;2023-12-29T01:53:58;100742.72;;;10.97;100.00
54882;BME280;40775;51.448;4.742;2023-12-29T01:56:26;100742.78;;;11.01;100.00
54882;BME280;40775;51.448;4.742;2023-12-29T01:58:55;100720.88;;;11.01;100.00
54882;BME280;40775;51.448;4.742;2023-12-29T02:01:33;100722.72;;;11.06;100.00
54882;BME280;40775;51.448;4.742;2023-12-29T02:04:01;100724.38;;;11.00;100.00
54882;BME280;40775;51.448;4.742;2023-12-29T02:06:29;100730.59;;;11.06;100.00
54882;BME280;40775;51.448;4.742;2023-12-29T02:08:58;100726.22;;;11.07;100.00
54882;BME280;40775;51.448;4.742;2023-12-29T02:11:26;100737.59;;;11.06;100.00
54882;BME280;40775;51.448;4.742;2023-12-29T02:13:53;100733.16;;;11.02;100.00
54882;BME280;40775;51.448;4.742;2023-12-29T02:17:05;100732.41;;;11.10;100.00
54882;BME280;40775;51.448;4.742;2023-12-29T02:19:45;100735.06;;;11.12;100.00
54882;BME280;40775;51.448;4.742;2023-12-29T02:22:14;100735.88;;;11.08;100.00
54882;BME280;40775;51.448;4.742;2023-12-29T02:24:49;100733.28;;;11.09;100.00
54882;BME280;40775;51.448;4.742;2023-12-29T02:32:22;100720.22;;;11.14;100.00
54882;BME280;40775;51.448;4.742;2023-12-29T02:34:50;100728.03;;;11.11;100.00
54882;BME280;40775;51.448;4.742;2023-12-29T02:37:19;100714.09;;;11.15;100.00
54882;BME280;40775;51.448;4.742;2023-12-29T02:39:47;100714.06;;;11.13;100.00
54882;BME280;40775;51.448;4.742;2023-12-29T02:42:14;100728.94;;;11.11;100.00
54882;BME280;40775;51.448;4.742;2023-12-29T02:44:41;100715.78;;;11.10;100.00
54882;BME280;40775;51.448;4.742;2023-12-29T02:47:08;100730.66;;;11.09;100.00
54882;BME280;40775;51.448;4.742;2023-12-29T02:49:35;100727.97;;;11.06;100.00
54882;BME280;40775;51.448;4.742;2023-12-29T02:52:03;100713.91;;;11.03;100.00
54882;BME280;40775;51.448;4.742;2023-12-29T02:54:30;100708.66;;;11.03;100.00
54882;BME280;40775;51.448;4.742;2023-12-29T02:56:57;100716.47;;;10.98;100.00
54882;BME280;40775;51.448;4.742;2023-12-29T02:59:24;100707.81;;;11.05;100.00
54882;BME280;40775;51.448;4.742;2023-12-29T03:01:51;100709.72;;;11.15;100.00
54882;BME280;40775;51.448;4.742;2023-12-29T03:04:18;100706.97;;;11.06;100.00
54882;BME280;40775;51.448;4.742;2023-12-29T03:06:45;100706.16;;;11.10;100.00
54882;BME280;40775;51.448;4.742;2023-12-29T03:09:12;100701.78;;;11.11;100.00
54882;BME280;40775;51.448;4.742;2023-12-29T03:11:39;100715.78;;;11.11;100.00
54882;BME280;40775;51.448;4.742;2023-12-29T03:14:07;100707.78;;;11.04;100.00
54882;BME280;40775;51.448;4.742;2023-12-29T03:16:34;100713.06;;;11.04;100.00
54882;BME280;40775;51.448;4.742;2023-12-29T03:19:01;100701.72;;;11.08;100.00
54882;BME280;40775;51.448;4.742;2023-12-29T03:21:28;100707.00;;;11.09;100.00
54882;BME280;40775;51.448;4.742;2023-12-29T03:23:55;100711.31;;;11.06;100.00
54882;BME280;40775;51.448;4.742;2023-12-29T03:26:22;100718.34;;;11.07;100.00
54882;BME280;40775;51.448;4.742;2023-12-29T03:28:50;100728.84;;;11.07;100.00
54882;BME280;40775;51.448;4.742;2023-12-29T03:31:17;100719.22;;;11.06;100.00
54882;BME280;40775;51.448;4.742;2023-12-29T03:33:44;100699.97;;;11.07;100.00
54882;BME280;40775;51.448;4.742;2023-12-29T03:36:12;100723.66;;;11.11;100.00
54882;BME280;40775;51.448;4.742;2023-12-29T03:38:39;100714.78;;;11.02;100.00
54882;BME280;40775;51.448;4.742;2023-12-29T03:41:06;100712.25;;;11.09;100.00
54882;BME280;40775;51.448;4.742;2023-12-29T03:43:33;100712.19;;;11.05;100.00
54882;BME280;40775;51.448;4.742;2023-12-29T03:46:00;100717.50;;;11.08;100.00
54882;BME280;40775;51.448;4.742;2023-12-29T03:48:27;100710.53;;;11.11;100.00
54882;BME280;40775;51.448;4.742;2023-12-29T03:50:54;100721.94;;;11.12;100.00
54882;BME280;40775;51.448;4.742;2023-12-29T03:53:21;100703.50;;;11.10;100.00
54882;BME280;40775;51.448;4.742;2023-12-29T03:55:48;100711.31;;;11.06;100.00
54882;BME280;40775;51.448;4.742;2023-12-29T03:58:15;100705.22;;;11.07;100.00
54882;BME280;40775;51.448;4.742;2023-12-29T04:00:42;100709.56;;;11.05;100.00
54882;BME280;40775;51.448;4.742;2023-12-29T04:03:09;100710.44;;;11.05;100.00
54882;BME280;40775;51.448;4.742;2023-12-29T04:05:36;100721.75;;;11.01;100.00
54882;BME280;40775;51.448;4.742;2023-12-29T04:08:04;100723.50;;;10.99;100.00
54882;BME280;40775;51.448;4.742;2023-12-29T04:10:31;100725.28;;;11.02;100.00
54882;BME280;40775;51.448;4.742;2023-12-29T04:12:58;100713.81;;;10.97;100.00
54882;BME280;40775;51.448;4.742;2023-12-29T04:15:25;100725.22;;;10.97;100.00
54882;BME280;40775;51.448;4.742;2023-12-29T04:17:52;100731.34;;;10.98;100.00
54882;BME280;40775;51.448;4.742;2023-12-29T04:20:19;100726.09;;;10.98;100.00
54882;BME280;40775;51.448;4.742;2023-12-29T04:22:47;100711.97;;;10.93;100.00
54882;BME280;40775;51.448;4.742;2023-12-29T04:25:14;100722.59;;;10.99;100.00
54882;BME280;40775;51.448;4.742;2023-12-29T04:27:41;100723.34;;;10.92;100.00
54882;BME280;40775;51.448;4.742;2023-12-29T04:30:09;100715.41;;;10.89;100.00
54882;BME280;40775;51.448;4.742;2023-12-29T04:32:36;100711.06;;;10.91;100.00
54882;BME280;40775;51.448;4.742;2023-12-29T04:35:04;100713.69;;;10.91;100.00
54882;BME280;40775;51.448;4.742;2023-12-29T04:37:32;100719.81;;;10.91;100.00
54882;BME280;40775;51.448;4.742;2023-12-29T04:39:59;100718.09;;;10.93;100.00
54882;BME280;40775;51.448;4.742;2023-12-29T04:42:26;100722.44;;;10.91;100.00
54882;BME280;40775;51.448;4.742;2023-12-29T04:44:53;100727.69;;;10.90;100.00
54882;BME280;40775;51.448;4.742;2023-12-29T04:47:20;100741.63;;;10.86;100.00
54882;BME280;40775;51.448;4.742;2023-12-29T04:49:47;100732.03;;;10.88;100.00
54882;BME280;40775;51.448;4.742;2023-12-29T04:52:14;100713.63;;;10.88;100.00
54882;BME280;40775;51.448;4.742;2023-12-29T04:54:41;100718.88;;;10.88;100.00
54882;BME280;40775;51.448;4.742;2023-12-29T04:57:09;100728.47;;;10.84;100.00
54882;BME280;40775;51.448;4.742;2023-12-29T04:59:36;100720.53;;;10.81;100.00
54882;BME280;40775;51.448;4.742;2023-12-29T05:02:03;100721.44;;;10.83;100.00
54882;BME280;40775;51.448;4.742;2023-12-29T05:04:30;100716.31;;;10.91;100.00
54882;BME280;40775;51.448;4.742;2023-12-29T05:06:57;100725.06;;;10.91;100.00
54882;BME280;40775;51.448;4.742;2023-12-29T05:09:24;100727.84;;;10.99;100.00
54882;BME280;40775;51.448;4.742;2023-12-29T05:11:51;100736.47;;;10.92;100.00
54882;BME280;40775;51.448;4.742;2023-12-29T05:14:18;100735.44;;;10.82;100.00
54882;BME280;40775;51.448;4.742;2023-12-29T05:16:45;100724.19;;;10.91;100.00
54882;BME280;40775;51.448;4.742;2023-12-29T05:19:12;100738.09;;;10.83;100.00
54882;BME280;40775;51.448;4.742;2023-12-29T05:21:39;100731.97;;;10.84;100.00
54882;BME280;40775;51.448;4.742;2023-12-29T05:24:06;100710.16;;;10.89;100.00
54882;BME280;40775;51.448;4.742;2023-12-29T05:26:34;100718.91;;;10.89;100.00
54882;BME280;40775;51.448;4.742;2023-12-29T05:29:02;100704.09;;;10.93;100.00
54882;BME280;40775;51.448;4.742;2023-12-29T05:31:29;100724.19;;;10.91;100.00
54882;BME280;40775;51.448;4.742;2023-12-29T05:33:56;100712.94;;;10.96;100.00
54882;BME280;40775;51.448;4.742;2023-12-29T05:36:23;100709.28;;;10.90;100.00
54882;BME280;40775;51.448;4.742;2023-12-29T05:38:51;100706.69;;;10.91;100.00
54882;BME280;40775;51.448;4.742;2023-12-29T05:41:19;100696.22;;;10.94;100.00
54882;BME280;40775;51.448;4.742;2023-12-29T05:43:46;100687.34;;;10.86;100.00
54882;BME280;40775;51.448;4.742;2023-12-29T05:46:13;100688.25;;;10.87;100.00
54882;BME280;40775;51.448;4.742;2023-12-29T05:48:40;100679.53;;;10.91;100.00
54882;BME280;40775;51.448;4.742;2023-12-29T05:51:13;100687.44;;;10.91;100.00
54882;BME280;40775;51.448;4.742;2023-12-29T05:53:40;100676.91;;;10.91;100.00
54882;BME280;40775;51.448;4.742;2023-12-29T05:56:08;100675.16;;;10.90;100.00
54882;BME280;40775;51.448;4.742;2023-12-29T05:58:36;100689.25;;;10.95;100.00
54882;BME280;40775;51.448;4.742;2023-12-29T06:01:03;100681.47;;;10.99;100.00
54882;BME280;40775;51.448;4.742;2023-12-29T06:03:30;100692.72;;;10.94;100.00
54882;BME280;40775;51.448;4.742;2023-12-29T06:05:57;100683.09;;;10.94;100.00
54882;BME280;40775;51.448;4.742;2023-12-29T06:08:24;100680.47;;;10.94;100.00
54882;BME280;40775;51.448;4.742;2023-12-29T06:10:51;100675.19;;;10.93;100.00
54882;BME280;40775;51.448;4.742;2023-12-29T06:13:18;100676.22;;;10.99;100.00
54882;BME280;40775;51.448;4.742;2023-12-29T06:15:46;100680.44;;;10.93;100.00
54882;BME280;40775;51.448;4.742;2023-12-29T06:18:13;100684.94;;;10.97;100.00
54882;BME280;40775;51.448;4.742;2023-12-29T06:20:40;100681.50;;;11.02;100.00
54882;BME280;40775;51.448;4.742;2023-12-29T06:23:07;100675.34;;;11.00;100.00
54882;BME280;40775;51.448;4.742;2023-12-29T06:25:34;100682.22;;;10.94;100.00
54882;BME280;40775;51.448;4.742;2023-12-29T06:28:03;100685.84;;;10.99;100.00
54882;BME280;40775;51.448;4.742;2023-12-29T06:30:34;100678.72;;;10.93;100.00
54882;BME280;40775;51.448;4.742;2023-12-29T06:33:01;100690.19;;;10.98;100.00
54882;BME280;40775;51.448;4.742;2023-12-29T06:35:28;100687.56;;;10.98;100.00
54882;BME280;40775;51.448;4.742;2023-12-29T06:37:55;100686.56;;;10.92;100.00
54882;BME280;40775;51.448;4.742;2023-12-29T06:40:22;100686.56;;;10.92;100.00
54882;BME280;40775;51.448;4.742;2023-12-29T06:42:50;100689.31;;;10.98;100.00
54882;BME280;40775;51.448;4.742;2023-12-29T06:45:17;100705.31;;;11.13;100.00
54882;BME280;40775;51.448;4.742;2023-12-29T06:47:44;100707.13;;;12.50;100.00
54882;BME280;40775;51.448;4.742;2023-12-29T06:50:11;100697.97;;;13.07;100.00
54882;BME280;40775;51.448;4.742;2023-12-29T06:52:40;100661.31;;;13.36;100.00
54882;BME280;40775;51.448;4.742;2023-12-29T06:55:07;100664.97;;;13.58;100.00
54882;BME280;40775;51.448;4.742;2023-12-29T06:57:35;100673.84;;;13.71;100.00
54882;BME280;40775;51.448;4.742;2023-12-29T07:00:04;100671.25;;;13.84;100.00
54882;BME280;40775;51.448;4.742;2023-12-29T07:02:31;100665.97;;;13.90;100.00
54882;BME280;40775;51.448;4.742;2023-12-29T07:04:58;100667.75;;;13.93;100.00
54882;BME280;40775;51.448;4.742;2023-12-29T07:07:26;100658.13;;;14.01;100.00
54882;BME280;40775;51.448;4.742;2023-12-29T07:09:53;100654.59;;;14.05;100.00
54882;BME280;40775;51.448;4.742;2023-12-29T07:12:20;100643.16;;;14.05;100.00
54882;BME280;40775;51.448;4.742;2023-12-29T07:14:47;100636.13;;;14.10;100.00
54882;BME280;40775;51.448;4.742;2023-12-29T07:17:14;100637.03;;;14.13;100.00
54882;BME280;40775;51.448;4.742;2023-12-29T07:19:41;100633.50;;;14.17;100.00
54882;BME280;40775;51.448;4.742;2023-12-29T07:22:09;100630.00;;;14.18;100.00
54882;BME280;40775;51.448;4.742;2023-12-29T07:24:36;100616.78;;;14.23;100.00
54882;BME280;40775;51.448;4.742;2023-12-29T07:27:04;100633.56;;;14.25;100.00
54882;BME280;40775;51.448;4.742;2023-12-29T07:29:31;100644.94;;;14.21;100.00
54882;BME280;40775;51.448;4.742;2023-12-29T07:31:58;100655.50;;;14.22;100.00
54882;BME280;40775;51.448;4.742;2023-12-29T07:34:26;100664.34;;;14.25;100.00
54882;BME280;40775;51.448;4.742;2023-12-29T07:36:54;100669.63;;;14.31;100.00
54882;BME280;40775;51.448;4.742;2023-12-29T07:39:21;100666.13;;;14.30;100.00
54882;BME280;40775;51.448;4.742;2023-12-29T07:41:48;100668.75;;;14.29;100.00
54882;BME280;40775;51.448;4.742;2023-12-29T07:44:17;100663.47;;;14.30;100.00
54882;BME280;40775;51.448;4.742;2023-12-29T07:46:45;100652.88;;;11.22;100.00
54882;BME280;40775;51.448;4.742;2023-12-29T07:49:12;100670.94;;;10.99;100.00
54882;BME280;40775;51.448;4.742;2023-12-29T07:51:46;100675.28;;;10.96;100.00
54882;BME280;40775;51.448;4.742;2023-12-29T07:54:13;100673.38;;;10.89;100.00
54882;BME280;40775;51.448;4.742;2023-12-29T07:56:41;100680.31;;;10.83;100.00
54882;BME280;40775;51.448;4.742;2023-12-29T07:59:08;100676.78;;;10.81;100.00
54882;BME280;40775;51.448;4.742;2023-12-29T08:01:35;100680.28;;;10.82;100.00
54882;BME280;40775;51.448;4.742;2023-12-29T08:04:04;100681.06;;;10.75;100.00
54882;BME280;40775;51.448;4.742;2023-12-29T08:06:31;100689.00;;;10.79;100.00
54882;BME280;40775;51.448;4.742;2023-12-29T08:08:58;100697.69;;;10.75;100.00
54882;BME280;40775;51.448;4.742;2023-12-29T08:11:25;100701.19;;;10.74;100.00
54882;BME280;40775;51.448;4.742;2023-12-29T08:13:52;100700.31;;;10.75;100.00
54882;BME280;40775;51.448;4.742;2023-12-29T08:16:19;100717.78;;;10.73;100.00
54882;BME280;40775;51.448;4.742;2023-12-29T08:18:49;100733.53;;;10.73;100.00
54882;BME280;40775;51.448;4.742;2023-12-29T08:21:20;100731.06;;;10.82;100.00
54882;BME280;40775;51.448;4.742;2023-12-29T08:23:48;100732.69;;;10.74;100.00
54882;BME280;40775;51.448;4.742;2023-12-29T08:26:15;100732.66;;;10.73;100.00
54882;BME280;40775;51.448;4.742;2023-12-29T08:28:42;100731.59;;;10.65;100.00
54882;BME280;40775;51.448;4.742;2023-12-29T08:31:09;100729.88;;;10.65;100.00
54882;BME280;40775;51.448;4.742;2023-12-29T08:33:37;100733.41;;;10.67;100.00
54882;BME280;40775;51.448;4.742;2023-12-29T08:36:04;100738.63;;;10.66;100.00
54882;BME280;40775;51.448;4.742;2023-12-29T08:38:32;100746.53;;;10.67;100.00
54882;BME280;40775;51.448;4.742;2023-12-29T08:40:59;100755.34;;;10.69;100.00
54882;BME280;40775;51.448;4.742;2023-12-29T08:43:26;100747.47;;;10.69;100.00
54882;BME280;40775;51.448;4.742;2023-12-29T08:45:53;100739.59;;;10.69;100.00
54882;BME280;40775;51.448;4.742;2023-12-29T08:48:21;100739.53;;;10.68;100.00
54882;BME280;40775;51.448;4.742;2023-12-29T08:50:49;100745.72;;;10.68;100.00
54882;BME280;40775;51.448;4.742;2023-12-29T08:53:17;100746.59;;;10.69;100.00
54882;BME280;40775;51.448;4.742;2023-12-29T08:55:44;100748.38;;;10.71;100.00
54882;BME280;40775;51.448;4.742;2023-12-29T08:58:12;100747.66;;;10.80;100.00
54882;BME280;40775;51.448;4.742;2023-12-29T09:00:39;100738.88;;;10.78;100.00
54882;BME280;40775;51.448;4.742;2023-12-29T09:03:07;100732.72;;;10.77;100.00
54882;BME280;40775;51.448;4.742;2023-12-29T09:05:34;100732.69;;;10.74;100.00
54882;BME280;40775;51.448;4.742;2023-12-29T09:08:01;100739.69;;;10.75;100.00
54882;BME280;40775;51.448;4.742;2023-12-29T09:10:28;100732.72;;;10.77;100.00
54882;BME280;40775;51.448;4.742;2023-12-29T09:12:55;100750.28;;;10.80;100.00
54882;BME280;40775;51.448;4.742;2023-12-29T09:15:22;100734.56;;;10.83;100.00
54882;BME280;40775;51.448;4.742;2023-12-29T09:17:49;100748.66;;;10.88;100.00
54882;BME280;40775;51.448;4.742;2023-12-29T09:20:17;100724.09;;;10.84;100.00
54882;BME280;40775;51.448;4.742;2023-12-29T09:22:45;100740.72;;;10.85;100.00
54882;BME280;40775;51.448;4.742;2023-12-29T09:25:12;100741.66;;;10.87;100.00
54882;BME280;40775;51.448;4.742;2023-12-29T09:27:39;100738.13;;;10.87;100.00
54882;BME280;40775;51.448;4.742;2023-12-29T09:30:07;100734.69;;;10.91;100.00
54882;BME280;40775;51.448;4.742;2023-12-29T09:32:34;100745.34;;;10.98;100.00
54882;BME280;40775;51.448;4.742;2023-12-29T09:35:04;100736.59;;;10.98;100.00
54882;BME280;40775;51.448;4.742;2023-12-29T09:37:31;100744.50;;;10.99;100.00
54882;BME280;40775;51.448;4.742;2023-12-29T09:39:59;100746.25;;;11.00;100.00
54882;BME280;40775;51.448;4.742;2023-12-29T09:42:28;100727.00;;;11.00;100.00
54882;BME280;40775;51.448;4.742;2023-12-29T09:44:56;100718.25;;;11.01;100.00
54882;BME280;40775;51.448;4.742;2023-12-29T09:47:24;100718.31;;;11.04;100.00
54882;BME280;40775;51.448;4.742;2023-12-29T09:49:52;100717.44;;;11.05;100.00
54882;BME280;40775;51.448;4.742;2023-12-29T09:52:22;100717.47;;;11.06;100.00
54882;BME280;40775;51.448;4.742;2023-12-29T09:54:51;100723.59;;;11.07;100.00
54882;BME280;40775;51.448;4.742;2023-12-29T09:57:19;100713.22;;;11.14;100.00
54882;BME280;40775;51.448;4.742;2023-12-29T09:59:49;100727.19;;;11.13;100.00
54882;BME280;40775;51.448;4.742;2023-12-29T10:02:20;100735.09;;;11.15;100.00
54882;BME280;40775;51.448;4.742;2023-12-29T10:04:49;100726.41;;;11.19;100.00
54882;BME280;40775;51.448;4.742;2023-12-29T10:07:39;100747.47;;;11.22;100.00
54882;BME280;40775;51.448;4.742;2023-12-29T10:10:16;100734.41;;;11.25;100.00
54882;BME280;40775;51.448;4.742;2023-12-29T10:12:50;100740.53;;;11.24;100.00
54882;BME280;40775;51.448;4.742;2023-12-29T10:15:44;100747.66;;;11.31;100.00
54882;BME280;40775;51.448;4.742;2023-12-29T10:18:42;100724.81;;;11.27;100.00
54882;BME280;40775;51.448;4.742;2023-12-29T10:21:29;100729.22;;;11.30;100.00
54882;BME280;40775;51.448;4.742;2023-12-29T10:24:20;100748.53;;;11.32;100.00
54882;BME280;40775;51.448;4.742;2023-12-29T10:26:49;100749.41;;;11.32;100.00
54882;BME280;40775;51.448;4.742;2023-12-29T10:29:16;100759.09;;;11.35;100.00
54882;BME280;40775;51.448;4.742;2023-12-29T10:31:46;100761.66;;;11.32;100.00
54882;BME280;40775;51.448;4.742;2023-12-29T10:34:21;100746.00;;;11.38;100.00
54882;BME280;40775;51.448;4.742;2023-12-29T10:36:56;100754.72;;;11.35;100.00
54882;BME280;40775;51.448;4.742;2023-12-29T10:39:24;100755.59;;;11.36;100.00
54882;BME280;40775;51.448;4.742;2023-12-29T10:42:10;100756.50;;;11.38;100.00
54882;BME280;40775;51.448;4.742;2023-12-29T10:44:40;100758.28;;;11.39;100.00
54882;BME280;40775;51.448;4.742;2023-12-29T10:47:13;100760.06;;;11.41;100.00
54882;BME280;40775;51.448;4.742;2023-12-29T10:49:41;100757.44;;;11.41;100.00
54882;BME280;40775;51.448;4.742;2023-12-29T10:52:16;100765.34;;;11.44;100.00
54882;BME280;40775;51.448;4.742;2023-12-29T10:54:44;100770.66;;;11.48;100.00
54882;BME280;40775;51.448;4.742;2023-12-29T10:57:12;100771.56;;;11.50;100.00
54882;BME280;40775;51.448;4.742;2023-12-29T10:59:40;100761.88;;;11.47;100.00
54882;BME280;40775;51.448;4.742;2023-12-29T11:02:12;100761.91;;;11.49;100.00
54882;BME280;40775;51.448;4.742;2023-12-29T11:04:42;100781.16;;;11.48;100.00
54882;BME280;40775;51.448;4.742;2023-12-29T11:07:12;100789.91;;;11.45;100.00
54882;BME280;40775;51.448;4.742;2023-12-29T11:09:40;100785.47;;;11.41;100.00
54882;BME280;40775;51.448;4.742;2023-12-29T11:12:10;100780.16;;;11.38;100.00
54882;BME280;40775;51.448;4.742;2023-12-29T11:14:41;100784.47;;;11.34;100.00
54882;BME280;40775;51.448;4.742;2023-12-29T11:17:12;100787.00;;;11.27;100.00
54882;BME280;40775;51.448;4.742;2023-12-29T11:19:42;100792.13;;;11.21;100.00
54882;BME280;40775;51.448;4.742;2023-12-29T11:22:10;100789.34;;;11.11;100.00
54882;BME280;40775;51.448;4.742;2023-12-29T11:24:37;100792.78;;;11.07;100.00
54882;BME280;40775;51.448;4.742;2023-12-29T11:27:10;100804.97;;;11.02;100.00
54882;BME280;40775;51.448;4.742;2023-12-29T11:29:41;100811.94;;;11.00;100.00
54882;BME280;40775;51.448;4.742;2023-12-29T11:32:24;100816.25;;;10.97;100.00
54882;BME280;40775;51.448;4.742;2023-12-29T11:35:09;100812.69;;;10.95;100.00
54882;BME280;40775;51.448;4.742;2023-12-29T11:37:57;100814.44;;;10.94;100.00
54882;BME280;40775;51.448;4.742;2023-12-29T11:40:41;100803.03;;;10.94;100.00
54882;BME280;40775;51.448;4.742;2023-12-29T11:43:16;100806.53;;;10.93;100.00
54882;BME280;40775;51.448;4.742;2023-12-29T11:45:44;100804.00;;;10.97;100.00
54882;BME280;40775;51.448;4.742;2023-12-29T11:48:12;100798.78;;;10.99;100.00
54882;BME280;40775;51.448;4.742;2023-12-29T11:50:40;100792.69;;;11.01;100.00
54882;BME280;40775;51.448;4.742;2023-12-29T11:53:08;100799.72;;;11.04;100.00
54882;BME280;40775;51.448;4.742;2023-12-29T11:55:39;100794.47;;;11.04;100.00
54882;BME280;40775;51.448;4.742;2023-12-29T11:58:26;100795.38;;;11.04;100.00
54882;BME280;40775;51.448;4.742;2023-12-29T12:00:56;100791.03;;;11.08;100.00
54882;BME280;40775;51.448;4.742;2023-12-29T12:03:28;100784.97;;;11.10;100.00
54882;BME280;40775;51.448;4.742;2023-12-29T12:05:58;100778.81;;;11.10;100.00
54882;BME280;40775;51.448;4.742;2023-12-29T12:08:36;100773.56;;;11.10;100.00
54882;BME280;40775;51.448;4.742;2023-12-29T12:13:56;100778.88;;;11.13;100.00
54882;BME280;40775;51.448;4.742;2023-12-29T12:19:13;100766.53;;;11.07;100.00
54882;BME280;40775;51.448;4.742;2023-12-29T12:21:41;100766.56;;;11.10;100.00
54882;BME280;40775;51.448;4.742;2023-12-29T12:24:08;100763.00;;;11.07;100.00
54882;BME280;40775;51.448;4.742;2023-12-29T12:26:35;100756.84;;;11.05;100.00
54882;BME280;40775;51.448;4.742;2023-12-29T12:29:04;100765.56;;;11.02;100.00
54882;BME280;40775;51.448;4.742;2023-12-29T12:31:31;100766.41;;;11.00;100.00
54882;BME280;40775;51.448;4.742;2023-12-29T12:33:59;100749.78;;;11.01;100.00
54882;BME280;40775;51.448;4.742;2023-12-29T12:36:29;100757.72;;;11.04;100.00
54882;BME280;40775;51.448;4.742;2023-12-29T12:38:57;100760.34;;;11.05;100.00
54882;BME280;40775;51.448;4.742;2023-12-29T12:41:26;100767.34;;;11.05;100.00
54882;BME280;40775;51.448;4.742;2023-12-29T12:44:13;100756.00;;;11.07;100.00
54882;BME280;40775;51.448;4.742;2023-12-29T12:46:50;100755.16;;;11.08;100.00
54882;BME280;40775;51.448;4.742;2023-12-29T12:49:21;100742.88;;;11.07;100.00
54882;BME280;40775;51.448;4.742;2023-12-29T12:51:48;100748.19;;;11.10;100.00
54882;BME280;40775;51.448;4.742;2023-12-29T12:54:19;100726.31;;;11.13;100.00
54882;BME280;40775;51.448;4.742;2023-12-29T12:56:47;100730.75;;;11.15;100.00
54882;BME280;40775;51.448;4.742;2023-12-29T12:59:15;100728.19;;;11.20;100.00
54882;BME280;40775;51.448;4.742;2023-12-29T13:01:43;100737.94;;;11.26;100.00
54882;BME280;40775;51.448;4.742;2023-12-29T13:04:11;100737.03;;;11.25;100.00